sensor_id;sensor_type;location;lat;lon;timestamp;P1;durP1;ratioP1;P2;durP2;ratioP2
68921;SDS011;55959;51.244;5.724;2023-05-16T00:00:23;2.33;;;1.33;;
68921;SDS011;55959;51.244;5.724;2023-05-16T00:02:49;3.70;;;1.30;;
68921;SDS011;55959;51.244;5.724;2023-05-16T00:05:15;4.10;;;1.37;;
68921;SDS011;55959;51.244;5.724;2023-05-16T00:07:42;3.67;;;1.40;;
68921;SDS011;55959;51.244;5.724;2023-05-16T00:10:10;4.07;;;1.60;;
68921;SDS011;55959;51.244;5.724;2023-05-16T00:12:36;3.53;;;1.10;;
68921;SDS011;55959;51.244;5.724;2023-05-16T00:15:03;2.97;;;1.20;;
68921;SDS011;55959;51.244;5.724;2023-05-16T00:17:37;3.43;;;1.37;;
68921;SDS011;55959;51.244;5.724;2023-05-16T00:20:05;3.63;;;1.50;;
68921;SDS011;55959;51.244;5.724;2023-05-16T00:22:36;3.37;;;1.37;;
68921;SDS011;55959;51.244;5.724;2023-05-16T00:25:02;3.20;;;1.47;;
68921;SDS011;55959;51.244;5.724;2023-05-16T00:27:28;3.47;;;1.20;;
68921;SDS011;55959;51.244;5.724;2023-05-16T00:29:54;4.53;;;1.80;;
68921;SDS011;55959;51.244;5.724;2023-05-16T00:32:20;5.03;;;1.70;;
68921;SDS011;55959;51.244;5.724;2023-05-16T00:34:46;6.97;;;1.70;;
68921;SDS011;55959;51.244;5.724;2023-05-16T00:37:12;5.43;;;1.50;;
68921;SDS011;55959;51.244;5.724;2023-05-16T00:39:38;5.60;;;1.90;;
68921;SDS011;55959;51.244;5.724;2023-05-16T00:42:04;2.73;;;1.60;;
68921;SDS011;55959;51.244;5.724;2023-05-16T00:44:32;3.57;;;1.40;;
68921;SDS011;55959;51.244;5.724;2023-05-16T00:46:57;4.27;;;1.63;;
68921;SDS011;55959;51.244;5.724;2023-05-16T00:49:25;3.87;;;1.23;;
68921;SDS011;55959;51.244;5.724;2023-05-16T00:51:51;2.90;;;1.50;;
68921;SDS011;55959;51.244;5.724;2023-05-16T00:54:17;6.10;;;1.57;;
68921;SDS011;55959;51.244;5.724;2023-05-16T00:56:50;3.23;;;1.57;;
68921;SDS011;55959;51.244;5.724;2023-05-16T00:59:16;5.90;;;1.93;;
68921;SDS011;55959;51.244;5.724;2023-05-16T01:01:47;2.80;;;1.67;;
68921;SDS011;55959;51.244;5.724;2023-05-16T01:04:14;6.30;;;2.03;;
68921;SDS011;55959;51.244;5.724;2023-05-16T01:06:41;5.27;;;1.67;;
68921;SDS011;55959;51.244;5.724;2023-05-16T01:09:08;4.17;;;1.50;;
68921;SDS011;55959;51.244;5.724;2023-05-16T01:11:46;5.57;;;1.77;;
68921;SDS011;55959;51.244;5.724;2023-05-16T01:17:53;6.33;;;2.10;;
68921;SDS011;55959;51.244;5.724;2023-05-16T01:20:43;4.47;;;1.37;;
68921;SDS011;55959;51.244;5.724;2023-05-16T01:28:52;6.10;;;2.33;;
68921;SDS011;55959;51.244;5.724;2023-05-16T01:31:19;4.03;;;1.70;;
68921;SDS011;55959;51.244;5.724;2023-05-16T01:33:46;5.87;;;1.60;;
68921;SDS011;55959;51.244;5.724;2023-05-16T01:44:52;9.13;;;2.90;;
68921;SDS011;55959;51.244;5.724;2023-05-16T01:47:39;5.77;;;2.00;;
68921;SDS011;55959;51.244;5.724;2023-05-16T01:52:47;3.77;;;1.63;;
68921;SDS011;55959;51.244;5.724;2023-05-16T01:55:22;3.77;;;1.80;;
68921;SDS011;55959;51.244;5.724;2023-05-16T01:58:02;6.50;;;1.87;;
68921;SDS011;55959;51.244;5.724;2023-05-16T02:00:29;6.13;;;2.07;;
68921;SDS011;55959;51.244;5.724;2023-05-16T02:02:55;5.47;;;2.00;;
68921;SDS011;55959;51.244;5.724;2023-05-16T02:05:21;6.07;;;1.90;;
68921;SDS011;55959;51.244;5.724;2023-05-16T02:07:47;6.93;;;1.93;;
68921;SDS011;55959;51.244;5.724;2023-05-16T02:10:13;5.80;;;1.93;;
68921;SDS011;55959;51.244;5.724;2023-05-16T02:12:39;5.73;;;2.00;;
68921;SDS011;55959;51.244;5.724;2023-05-16T02:15:04;9.20;;;2.77;;
68921;SDS011;55959;51.244;5.724;2023-05-16T02:17:31;6.23;;;2.20;;
68921;SDS011;55959;51.244;5.724;2023-05-16T02:19:57;6.63;;;1.67;;
68921;SDS011;55959;51.244;5.724;2023-05-16T02:22:23;6.70;;;1.77;;
68921;SDS011;55959;51.244;5.724;2023-05-16T02:24:49;5.53;;;1.90;;
68921;SDS011;55959;51.244;5.724;2023-05-16T02:27:15;5.57;;;1.57;;
68921;SDS011;55959;51.244;5.724;2023-05-16T02:29:41;5.30;;;1.60;;
68921;SDS011;55959;51.244;5.724;2023-05-16T02:32:07;7.97;;;1.60;;
68921;SDS011;55959;51.244;5.724;2023-05-16T02:34:33;5.27;;;1.63;;
68921;SDS011;55959;51.244;5.724;2023-05-16T02:36:59;5.30;;;1.57;;
68921;SDS011;55959;51.244;5.724;2023-05-16T02:39:24;8.27;;;1.80;;
68921;SDS011;55959;51.244;5.724;2023-05-16T02:41:50;4.47;;;1.90;;
68921;SDS011;55959;51.244;5.724;2023-05-16T02:44:16;5.27;;;1.70;;
68921;SDS011;55959;51.244;5.724;2023-05-16T02:46:42;8.00;;;1.83;;
68921;SDS011;55959;51.244;5.724;2023-05-16T02:49:08;4.77;;;1.40;;
68921;SDS011;55959;51.244;5.724;2023-05-16T02:51:33;4.57;;;1.50;;
68921;SDS011;55959;51.244;5.724;2023-05-16T02:53:59;4.57;;;1.50;;
68921;SDS011;55959;51.244;5.724;2023-05-16T02:56:25;5.20;;;1.47;;
68921;SDS011;55959;51.244;5.724;2023-05-16T02:58:52;4.57;;;1.50;;
68921;SDS011;55959;51.244;5.724;2023-05-16T03:01:18;5.20;;;1.50;;
68921;SDS011;55959;51.244;5.724;2023-05-16T03:03:44;4.80;;;1.53;;
68921;SDS011;55959;51.244;5.724;2023-05-16T03:06:10;5.53;;;1.77;;
68921;SDS011;55959;51.244;5.724;2023-05-16T03:08:36;7.37;;;1.80;;
68921;SDS011;55959;51.244;5.724;2023-05-16T03:11:02;7.43;;;1.67;;
68921;SDS011;55959;51.244;5.724;2023-05-16T03:13:28;4.60;;;1.50;;
68921;SDS011;55959;51.244;5.724;2023-05-16T03:15:54;5.67;;;2.07;;
68921;SDS011;55959;51.244;5.724;2023-05-16T03:18:20;3.70;;;1.43;;
68921;SDS011;55959;51.244;5.724;2023-05-16T03:20:46;3.27;;;1.33;;
68921;SDS011;55959;51.244;5.724;2023-05-16T03:23:11;3.33;;;1.43;;
68921;SDS011;55959;51.244;5.724;2023-05-16T03:25:37;5.77;;;1.70;;
68921;SDS011;55959;51.244;5.724;2023-05-16T03:28:04;8.20;;;1.70;;
68921;SDS011;55959;51.244;5.724;2023-05-16T03:30:32;8.40;;;2.20;;
68921;SDS011;55959;51.244;5.724;2023-05-16T03:32:58;4.77;;;1.70;;
68921;SDS011;55959;51.244;5.724;2023-05-16T03:35:24;5.10;;;1.80;;
68921;SDS011;55959;51.244;5.724;2023-05-16T03:37:52;7.13;;;2.13;;
68921;SDS011;55959;51.244;5.724;2023-05-16T03:40:17;4.20;;;1.60;;
68921;SDS011;55959;51.244;5.724;2023-05-16T03:42:43;8.07;;;1.80;;
68921;SDS011;55959;51.244;5.724;2023-05-16T03:45:09;5.50;;;2.17;;
68921;SDS011;55959;51.244;5.724;2023-05-16T03:47:36;4.20;;;1.37;;
68921;SDS011;55959;51.244;5.724;2023-05-16T03:50:02;6.77;;;1.73;;
68921;SDS011;55959;51.244;5.724;2023-05-16T03:52:28;5.20;;;1.57;;
68921;SDS011;55959;51.244;5.724;2023-05-16T03:54:55;4.97;;;1.77;;
68921;SDS011;55959;51.244;5.724;2023-05-16T03:57:21;5.60;;;1.40;;
68921;SDS011;55959;51.244;5.724;2023-05-16T03:59:47;7.83;;;2.17;;
68921;SDS011;55959;51.244;5.724;2023-05-16T04:02:12;6.00;;;1.73;;
68921;SDS011;55959;51.244;5.724;2023-05-16T04:04:39;5.77;;;1.50;;
68921;SDS011;55959;51.244;5.724;2023-05-16T04:07:04;4.73;;;1.43;;
68921;SDS011;55959;51.244;5.724;2023-05-16T04:09:30;4.53;;;1.60;;
68921;SDS011;55959;51.244;5.724;2023-05-16T04:11:56;5.90;;;1.57;;
68921;SDS011;55959;51.244;5.724;2023-05-16T04:14:25;5.70;;;1.30;;
68921;SDS011;55959;51.244;5.724;2023-05-16T04:16:51;4.10;;;1.60;;
68921;SDS011;55959;51.244;5.724;2023-05-16T04:19:17;5.37;;;1.50;;
68921;SDS011;55959;51.244;5.724;2023-05-16T04:21:43;6.30;;;1.43;;
68921;SDS011;55959;51.244;5.724;2023-05-16T04:24:08;5.13;;;2.00;;
68921;SDS011;55959;51.244;5.724;2023-05-16T04:26:35;3.97;;;1.57;;
68921;SDS011;55959;51.244;5.724;2023-05-16T04:29:02;5.00;;;1.63;;
68921;SDS011;55959;51.244;5.724;2023-05-16T04:31:29;6.40;;;1.63;;
68921;SDS011;55959;51.244;5.724;2023-05-16T04:33:55;4.67;;;1.37;;
68921;SDS011;55959;51.244;5.724;2023-05-16T04:36:22;4.63;;;1.40;;
68921;SDS011;55959;51.244;5.724;2023-05-16T04:38:48;4.80;;;1.50;;
68921;SDS011;55959;51.244;5.724;2023-05-16T04:41:14;4.27;;;1.40;;
68921;SDS011;55959;51.244;5.724;2023-05-16T04:43:40;6.00;;;2.07;;
68921;SDS011;55959;51.244;5.724;2023-05-16T04:46:07;4.67;;;1.60;;
68921;SDS011;55959;51.244;5.724;2023-05-16T04:48:34;3.80;;;1.47;;
68921;SDS011;55959;51.244;5.724;2023-05-16T04:50:59;7.40;;;2.27;;
68921;SDS011;55959;51.244;5.724;2023-05-16T04:53:25;4.67;;;1.60;;
68921;SDS011;55959;51.244;5.724;2023-05-16T04:55:51;4.83;;;1.80;;
68921;SDS011;55959;51.244;5.724;2023-05-16T04:58:17;4.87;;;1.50;;
68921;SDS011;55959;51.244;5.724;2023-05-16T05:00:43;7.70;;;2.50;;
68921;SDS011;55959;51.244;5.724;2023-05-16T05:03:08;5.33;;;1.73;;
68921;SDS011;55959;51.244;5.724;2023-05-16T05:05:34;5.50;;;1.80;;
68921;SDS011;55959;51.244;5.724;2023-05-16T05:08:00;5.63;;;1.70;;
68921;SDS011;55959;51.244;5.724;2023-05-16T05:10:26;4.77;;;1.57;;
68921;SDS011;55959;51.244;5.724;2023-05-16T05:12:52;4.40;;;1.87;;
68921;SDS011;55959;51.244;5.724;2023-05-16T05:15:18;7.57;;;1.80;;
68921;SDS011;55959;51.244;5.724;2023-05-16T05:17:43;5.03;;;1.63;;
68921;SDS011;55959;51.244;5.724;2023-05-16T05:20:10;4.63;;;1.83;;
68921;SDS011;55959;51.244;5.724;2023-05-16T05:22:36;5.10;;;1.80;;
68921;SDS011;55959;51.244;5.724;2023-05-16T05:25:02;4.60;;;1.57;;
68921;SDS011;55959;51.244;5.724;2023-05-16T05:27:30;6.37;;;1.87;;
68921;SDS011;55959;51.244;5.724;2023-05-16T05:29:56;7.40;;;2.13;;
68921;SDS011;55959;51.244;5.724;2023-05-16T05:32:22;9.17;;;2.17;;
68921;SDS011;55959;51.244;5.724;2023-05-16T05:34:48;7.30;;;1.77;;
68921;SDS011;55959;51.244;5.724;2023-05-16T05:37:13;5.17;;;1.70;;
68921;SDS011;55959;51.244;5.724;2023-05-16T05:39:39;5.47;;;1.60;;
68921;SDS011;55959;51.244;5.724;2023-05-16T05:42:05;9.70;;;2.47;;
68921;SDS011;55959;51.244;5.724;2023-05-16T05:44:31;3.47;;;1.40;;
68921;SDS011;55959;51.244;5.724;2023-05-16T05:46:57;6.00;;;1.60;;
68921;SDS011;55959;51.244;5.724;2023-05-16T05:49:23;4.30;;;1.80;;
68921;SDS011;55959;51.244;5.724;2023-05-16T05:51:50;5.70;;;1.67;;
68921;SDS011;55959;51.244;5.724;2023-05-16T05:54:17;7.37;;;1.77;;
68921;SDS011;55959;51.244;5.724;2023-05-16T05:56:43;8.30;;;2.50;;
68921;SDS011;55959;51.244;5.724;2023-05-16T05:59:09;6.53;;;2.30;;
68921;SDS011;55959;51.244;5.724;2023-05-16T06:01:35;6.57;;;1.87;;
68921;SDS011;55959;51.244;5.724;2023-05-16T06:04:01;6.47;;;1.57;;
68921;SDS011;55959;51.244;5.724;2023-05-16T06:06:27;6.67;;;1.93;;
68921;SDS011;55959;51.244;5.724;2023-05-16T06:08:53;10.53;;;2.30;;
68921;SDS011;55959;51.244;5.724;2023-05-16T06:11:19;5.63;;;2.07;;
68921;SDS011;55959;51.244;5.724;2023-05-16T06:13:45;11.27;;;2.13;;
68921;SDS011;55959;51.244;5.724;2023-05-16T06:16:12;4.10;;;1.60;;
68921;SDS011;55959;51.244;5.724;2023-05-16T06:18:38;5.53;;;1.70;;
68921;SDS011;55959;51.244;5.724;2023-05-16T06:21:04;4.90;;;1.30;;
68921;SDS011;55959;51.244;5.724;2023-05-16T06:23:30;4.77;;;1.50;;
68921;SDS011;55959;51.244;5.724;2023-05-16T06:25:57;5.47;;;1.67;;
68921;SDS011;55959;51.244;5.724;2023-05-16T06:28:23;2.30;;;1.13;;
68921;SDS011;55959;51.244;5.724;2023-05-16T06:30:49;4.37;;;1.57;;
68921;SDS011;55959;51.244;5.724;2023-05-16T06:33:16;4.63;;;1.55;;
68921;SDS011;55959;51.244;5.724;2023-05-16T06:35:43;4.53;;;1.53;;
68921;SDS011;55959;51.244;5.724;2023-05-16T06:38:09;4.20;;;1.48;;
68921;SDS011;55959;51.244;5.724;2023-05-16T06:40:35;4.43;;;1.33;;
68921;SDS011;55959;51.244;5.724;2023-05-16T06:43:01;3.72;;;1.48;;
68921;SDS011;55959;51.244;5.724;2023-05-16T06:45:27;4.07;;;1.48;;
68921;SDS011;55959;51.244;5.724;2023-05-16T06:47:54;4.90;;;1.45;;
68921;SDS011;55959;51.244;5.724;2023-05-16T06:50:20;4.70;;;1.80;;
68921;SDS011;55959;51.244;5.724;2023-05-16T06:52:46;3.30;;;1.35;;
68921;SDS011;55959;51.244;5.724;2023-05-16T06:55:12;3.22;;;1.17;;
68921;SDS011;55959;51.244;5.724;2023-05-16T06:57:38;4.00;;;1.67;;
68921;SDS011;55959;51.244;5.724;2023-05-16T07:00:04;6.97;;;2.08;;
68921;SDS011;55959;51.244;5.724;2023-05-16T07:02:31;4.50;;;1.55;;
68921;SDS011;55959;51.244;5.724;2023-05-16T07:04:56;5.78;;;1.38;;
68921;SDS011;55959;51.244;5.724;2023-05-16T07:07:22;4.50;;;1.42;;
68921;SDS011;55959;51.244;5.724;2023-05-16T07:09:48;3.60;;;1.45;;
68921;SDS011;55959;51.244;5.724;2023-05-16T07:12:13;3.35;;;1.42;;
68921;SDS011;55959;51.244;5.724;2023-05-16T07:14:39;4.22;;;1.55;;
68921;SDS011;55959;51.244;5.724;2023-05-16T07:17:05;4.87;;;1.30;;
68921;SDS011;55959;51.244;5.724;2023-05-16T07:19:31;4.13;;;1.37;;
68921;SDS011;55959;51.244;5.724;2023-05-16T07:21:57;4.47;;;1.40;;
68921;SDS011;55959;51.244;5.724;2023-05-16T07:24:22;7.33;;;1.50;;
68921;SDS011;55959;51.244;5.724;2023-05-16T07:26:49;6.40;;;1.77;;
68921;SDS011;55959;51.244;5.724;2023-05-16T07:29:15;4.10;;;1.40;;
68921;SDS011;55959;51.244;5.724;2023-05-16T07:31:41;6.47;;;1.73;;
68921;SDS011;55959;51.244;5.724;2023-05-16T07:34:08;5.90;;;1.33;;
68921;SDS011;55959;51.244;5.724;2023-05-16T07:36:36;6.83;;;1.47;;
68921;SDS011;55959;51.244;5.724;2023-05-16T07:39:02;4.50;;;1.50;;
68921;SDS011;55959;51.244;5.724;2023-05-16T07:41:29;3.93;;;1.20;;
68921;SDS011;55959;51.244;5.724;2023-05-16T07:43:54;4.73;;;1.13;;
68921;SDS011;55959;51.244;5.724;2023-05-16T07:46:20;5.03;;;1.50;;
68921;SDS011;55959;51.244;5.724;2023-05-16T07:48:46;3.47;;;1.40;;
68921;SDS011;55959;51.244;5.724;2023-05-16T07:51:12;6.80;;;1.73;;
68921;SDS011;55959;51.244;5.724;2023-05-16T07:53:38;3.90;;;1.20;;
68921;SDS011;55959;51.244;5.724;2023-05-16T07:56:04;5.70;;;1.33;;
68921;SDS011;55959;51.244;5.724;2023-05-16T07:58:30;2.50;;;1.00;;
68921;SDS011;55959;51.244;5.724;2023-05-16T08:00:56;4.73;;;1.10;;
68921;SDS011;55959;51.244;5.724;2023-05-16T08:03:22;3.53;;;1.57;;
68921;SDS011;55959;51.244;5.724;2023-05-16T08:05:48;2.00;;;0.90;;
68921;SDS011;55959;51.244;5.724;2023-05-16T08:08:15;3.93;;;1.33;;
68921;SDS011;55959;51.244;5.724;2023-05-16T08:10:41;4.10;;;1.23;;
68921;SDS011;55959;51.244;5.724;2023-05-16T08:13:07;5.67;;;2.10;;
68921;SDS011;55959;51.244;5.724;2023-05-16T08:15:33;2.77;;;1.07;;
68921;SDS011;55959;51.244;5.724;2023-05-16T08:18:00;3.47;;;1.00;;
68921;SDS011;55959;51.244;5.724;2023-05-16T08:20:25;3.17;;;1.30;;
68921;SDS011;55959;51.244;5.724;2023-05-16T08:22:52;4.07;;;1.43;;
68921;SDS011;55959;51.244;5.724;2023-05-16T08:25:18;3.83;;;1.50;;
68921;SDS011;55959;51.244;5.724;2023-05-16T08:27:45;4.93;;;1.43;;
68921;SDS011;55959;51.244;5.724;2023-05-16T08:30:12;5.33;;;1.23;;
68921;SDS011;55959;51.244;5.724;2023-05-16T08:32:38;3.27;;;1.33;;
68921;SDS011;55959;51.244;5.724;2023-05-16T08:35:04;3.27;;;1.13;;
68921;SDS011;55959;51.244;5.724;2023-05-16T08:37:31;4.03;;;1.33;;
68921;SDS011;55959;51.244;5.724;2023-05-16T08:39:57;2.90;;;0.90;;
68921;SDS011;55959;51.244;5.724;2023-05-16T08:42:23;2.70;;;0.83;;
68921;SDS011;55959;51.244;5.724;2023-05-16T08:44:49;2.63;;;0.90;;
68921;SDS011;55959;51.244;5.724;2023-05-16T08:47:18;3.27;;;0.93;;
68921;SDS011;55959;51.244;5.724;2023-05-16T08:49:47;3.13;;;1.00;;
68921;SDS011;55959;51.244;5.724;2023-05-16T08:52:16;2.13;;;1.10;;
68921;SDS011;55959;51.244;5.724;2023-05-16T08:54:45;3.40;;;1.20;;
68921;SDS011;55959;51.244;5.724;2023-05-16T08:57:12;4.50;;;1.30;;
68921;SDS011;55959;51.244;5.724;2023-05-16T08:59:39;5.20;;;1.10;;
68921;SDS011;55959;51.244;5.724;2023-05-16T09:02:05;3.50;;;1.17;;
68921;SDS011;55959;51.244;5.724;2023-05-16T09:04:32;5.30;;;1.40;;
68921;SDS011;55959;51.244;5.724;2023-05-16T09:06:58;2.03;;;0.77;;
68921;SDS011;55959;51.244;5.724;2023-05-16T09:09:24;2.17;;;0.90;;
68921;SDS011;55959;51.244;5.724;2023-05-16T09:11:49;3.53;;;0.83;;
68921;SDS011;55959;51.244;5.724;2023-05-16T09:14:15;2.23;;;0.83;;
68921;SDS011;55959;51.244;5.724;2023-05-16T09:16:41;2.73;;;1.00;;
68921;SDS011;55959;51.244;5.724;2023-05-16T09:19:11;3.83;;;1.17;;
68921;SDS011;55959;51.244;5.724;2023-05-16T09:21:37;1.90;;;0.63;;
68921;SDS011;55959;51.244;5.724;2023-05-16T09:24:05;3.03;;;0.80;;
68921;SDS011;55959;51.244;5.724;2023-05-16T09:26:33;2.27;;;1.10;;
68921;SDS011;55959;51.244;5.724;2023-05-16T09:29:07;3.50;;;1.10;;
68921;SDS011;55959;51.244;5.724;2023-05-16T09:31:38;2.83;;;1.03;;
68921;SDS011;55959;51.244;5.724;2023-05-16T09:34:07;1.93;;;1.00;;
68921;SDS011;55959;51.244;5.724;2023-05-16T09:36:36;2.50;;;1.00;;
68921;SDS011;55959;51.244;5.724;2023-05-16T09:39:02;1.27;;;0.60;;
68921;SDS011;55959;51.244;5.724;2023-05-16T09:41:35;2.17;;;0.93;;
68921;SDS011;55959;51.244;5.724;2023-05-16T09:44:07;1.73;;;0.80;;
68921;SDS011;55959;51.244;5.724;2023-05-16T09:46:33;2.03;;;0.90;;
68921;SDS011;55959;51.244;5.724;2023-05-16T09:49:01;3.83;;;0.80;;
68921;SDS011;55959;51.244;5.724;2023-05-16T09:51:27;3.27;;;1.10;;
68921;SDS011;55959;51.244;5.724;2023-05-16T09:53:52;1.70;;;0.73;;
68921;SDS011;55959;51.244;5.724;2023-05-16T09:56:18;1.97;;;0.70;;
68921;SDS011;55959;51.244;5.724;2023-05-16T09:58:45;3.33;;;1.13;;
68921;SDS011;55959;51.244;5.724;2023-05-16T10:01:11;2.93;;;1.00;;
68921;SDS011;55959;51.244;5.724;2023-05-16T10:03:38;2.63;;;1.00;;
68921;SDS011;55959;51.244;5.724;2023-05-16T10:06:05;4.63;;;1.10;;
68921;SDS011;55959;51.244;5.724;2023-05-16T10:08:33;3.90;;;1.30;;
68921;SDS011;55959;51.244;5.724;2023-05-16T10:11:02;1.85;;;0.90;;
68921;SDS011;55959;51.244;5.724;2023-05-16T10:13:31;3.00;;;0.98;;
68921;SDS011;55959;51.244;5.724;2023-05-16T10:16:00;3.73;;;1.17;;
68921;SDS011;55959;51.244;5.724;2023-05-16T10:18:32;2.78;;;1.10;;
68921;SDS011;55959;51.244;5.724;2023-05-16T10:21:02;2.70;;;1.00;;
68921;SDS011;55959;51.244;5.724;2023-05-16T10:23:31;2.25;;;0.93;;
68921;SDS011;55959;51.244;5.724;2023-05-16T10:25:59;2.50;;;1.08;;
68921;SDS011;55959;51.244;5.724;2023-05-16T10:28:28;3.80;;;1.30;;
68921;SDS011;55959;51.244;5.724;2023-05-16T10:30:54;2.75;;;1.10;;
68921;SDS011;55959;51.244;5.724;2023-05-16T10:33:20;2.25;;;1.02;;
68921;SDS011;55959;51.244;5.724;2023-05-16T10:35:46;2.43;;;1.07;;
68921;SDS011;55959;51.244;5.724;2023-05-16T10:38:13;3.95;;;0.90;;
68921;SDS011;55959;51.244;5.724;2023-05-16T10:40:42;3.15;;;1.10;;
68921;SDS011;55959;51.244;5.724;2023-05-16T10:43:08;3.07;;;1.20;;
68921;SDS011;55959;51.244;5.724;2023-05-16T10:45:38;3.08;;;0.90;;
68921;SDS011;55959;51.244;5.724;2023-05-16T10:48:05;2.75;;;0.80;;
68921;SDS011;55959;51.244;5.724;2023-05-16T10:53:21;1.65;;;0.75;;
68921;SDS011;55959;51.244;5.724;2023-05-16T11:03:59;2.22;;;0.90;;
68921;SDS011;55959;51.244;5.724;2023-05-16T11:11:51;1.85;;;0.73;;
68921;SDS011;55959;51.244;5.724;2023-05-16T11:17:08;4.15;;;1.17;;
68921;SDS011;55959;51.244;5.724;2023-05-16T11:19:56;3.45;;;0.98;;
68921;SDS011;55959;51.244;5.724;2023-05-16T11:22:25;1.75;;;0.90;;
68921;SDS011;55959;51.244;5.724;2023-05-16T11:24:58;3.40;;;1.05;;
68921;SDS011;55959;51.244;5.724;2023-05-16T11:27:35;1.33;;;0.77;;
68921;SDS011;55959;51.244;5.724;2023-05-16T11:32:34;2.33;;;0.70;;
68921;SDS011;55959;51.244;5.724;2023-05-16T11:35:02;2.45;;;0.80;;
68921;SDS011;55959;51.244;5.724;2023-05-16T11:37:31;4.30;;;0.80;;
68921;SDS011;55959;51.244;5.724;2023-05-16T11:40:00;1.80;;;0.70;;
68921;SDS011;55959;51.244;5.724;2023-05-16T11:42:33;2.63;;;1.02;;
68921;SDS011;55959;51.244;5.724;2023-05-16T11:45:08;4.00;;;0.98;;
68921;SDS011;55959;51.244;5.724;2023-05-16T11:47:39;2.50;;;0.82;;
68921;SDS011;55959;51.244;5.724;2023-05-16T11:50:12;5.32;;;1.30;;
68921;SDS011;55959;51.244;5.724;2023-05-16T11:52:45;4.10;;;0.93;;
68921;SDS011;55959;51.244;5.724;2023-05-16T11:55:12;3.03;;;1.02;;
68921;SDS011;55959;51.244;5.724;2023-05-16T11:57:41;2.33;;;0.70;;
68921;SDS011;55959;51.244;5.724;2023-05-16T12:00:14;1.35;;;0.70;;
68921;SDS011;55959;51.244;5.724;2023-05-16T12:02:43;1.50;;;0.70;;
68921;SDS011;55959;51.244;5.724;2023-05-16T12:05:11;3.28;;;1.15;;
68921;SDS011;55959;51.244;5.724;2023-05-16T12:07:38;2.13;;;0.80;;
68921;SDS011;55959;51.244;5.724;2023-05-16T12:10:08;2.35;;;0.73;;
68921;SDS011;55959;51.244;5.724;2023-05-16T12:12:37;2.72;;;1.10;;
68921;SDS011;55959;51.244;5.724;2023-05-16T12:15:06;2.38;;;0.85;;
68921;SDS011;55959;51.244;5.724;2023-05-16T12:17:33;1.83;;;0.93;;
68921;SDS011;55959;51.244;5.724;2023-05-16T12:20:04;2.88;;;0.93;;
68921;SDS011;55959;51.244;5.724;2023-05-16T12:22:31;3.45;;;0.90;;
68921;SDS011;55959;51.244;5.724;2023-05-16T12:24:58;3.17;;;1.08;;
68921;SDS011;55959;51.244;5.724;2023-05-16T12:28:01;2.40;;;1.00;;
68921;SDS011;55959;51.244;5.724;2023-05-16T12:30:29;1.70;;;0.80;;
68921;SDS011;55959;51.244;5.724;2023-05-16T12:35:28;3.63;;;0.93;;
68921;SDS011;55959;51.244;5.724;2023-05-16T12:37:56;2.00;;;0.88;;
68921;SDS011;55959;51.244;5.724;2023-05-16T12:40:22;2.90;;;0.68;;
68921;SDS011;55959;51.244;5.724;2023-05-16T12:42:52;2.45;;;0.90;;
68921;SDS011;55959;51.244;5.724;2023-05-16T12:45:18;2.70;;;0.80;;
68921;SDS011;55959;51.244;5.724;2023-05-16T12:47:46;4.72;;;1.42;;
68921;SDS011;55959;51.244;5.724;2023-05-16T12:50:12;2.75;;;1.17;;
68921;SDS011;55959;51.244;5.724;2023-05-16T12:52:54;2.78;;;1.08;;
68921;SDS011;55959;51.244;5.724;2023-05-16T12:55:24;2.28;;;1.00;;
68921;SDS011;55959;51.244;5.724;2023-05-16T12:57:51;2.30;;;1.00;;
68921;SDS011;55959;51.244;5.724;2023-05-16T13:00:18;4.13;;;1.10;;
68921;SDS011;55959;51.244;5.724;2023-05-16T13:02:45;2.10;;;1.00;;
68921;SDS011;55959;51.244;5.724;2023-05-16T13:05:12;2.65;;;1.13;;
68921;SDS011;55959;51.244;5.724;2023-05-16T13:07:38;4.32;;;1.70;;
68921;SDS011;55959;51.244;5.724;2023-05-16T13:10:08;2.30;;;0.80;;
68921;SDS011;55959;51.244;5.724;2023-05-16T13:12:35;2.22;;;1.17;;
68921;SDS011;55959;51.244;5.724;2023-05-16T13:15:02;2.13;;;0.85;;
68921;SDS011;55959;51.244;5.724;2023-05-16T13:17:31;3.30;;;1.17;;
68921;SDS011;55959;51.244;5.724;2023-05-16T13:20:01;3.15;;;1.10;;
68921;SDS011;55959;51.244;5.724;2023-05-16T13:22:32;2.90;;;1.20;;
68921;SDS011;55959;51.244;5.724;2023-05-16T13:24:58;2.25;;;1.00;;
68921;SDS011;55959;51.244;5.724;2023-05-16T13:27:24;3.60;;;1.17;;
68921;SDS011;55959;51.244;5.724;2023-05-16T13:29:50;2.58;;;0.98;;
68921;SDS011;55959;51.244;5.724;2023-05-16T13:32:16;1.30;;;0.80;;
68921;SDS011;55959;51.244;5.724;2023-05-16T13:34:42;3.33;;;0.90;;
68921;SDS011;55959;51.244;5.724;2023-05-16T13:37:08;4.10;;;1.17;;
68921;SDS011;55959;51.244;5.724;2023-05-16T13:39:35;2.13;;;1.10;;
68921;SDS011;55959;51.244;5.724;2023-05-16T13:42:01;4.28;;;1.20;;
68921;SDS011;55959;51.244;5.724;2023-05-16T13:44:27;2.70;;;1.33;;
68921;SDS011;55959;51.244;5.724;2023-05-16T13:46:54;3.05;;;1.33;;
68921;SDS011;55959;51.244;5.724;2023-05-16T13:49:21;3.53;;;1.13;;
68921;SDS011;55959;51.244;5.724;2023-05-16T13:51:47;3.88;;;1.20;;
68921;SDS011;55959;51.244;5.724;2023-05-16T13:54:13;3.75;;;1.30;;
68921;SDS011;55959;51.244;5.724;2023-05-16T13:56:39;3.13;;;1.33;;
68921;SDS011;55959;51.244;5.724;2023-05-16T13:59:05;2.53;;;1.10;;
68921;SDS011;55959;51.244;5.724;2023-05-16T14:01:31;1.65;;;0.90;;
68921;SDS011;55959;51.244;5.724;2023-05-16T14:03:56;1.73;;;0.82;;
68921;SDS011;55959;51.244;5.724;2023-05-16T14:06:23;1.95;;;1.02;;
68921;SDS011;55959;51.244;5.724;2023-05-16T14:08:49;2.25;;;0.82;;
68921;SDS011;55959;51.244;5.724;2023-05-16T14:11:15;3.53;;;1.00;;
68921;SDS011;55959;51.244;5.724;2023-05-16T14:13:43;2.83;;;1.30;;
68921;SDS011;55959;51.244;5.724;2023-05-16T14:16:10;3.13;;;0.93;;
68921;SDS011;55959;51.244;5.724;2023-05-16T14:18:35;3.78;;;1.08;;
68921;SDS011;55959;51.244;5.724;2023-05-16T14:21:01;3.47;;;0.98;;
68921;SDS011;55959;51.244;5.724;2023-05-16T14:23:27;1.13;;;0.60;;
68921;SDS011;55959;51.244;5.724;2023-05-16T14:25:53;2.92;;;1.10;;
68921;SDS011;55959;51.244;5.724;2023-05-16T14:28:19;2.95;;;1.10;;
68921;SDS011;55959;51.244;5.724;2023-05-16T14:30:45;3.70;;;1.20;;
68921;SDS011;55959;51.244;5.724;2023-05-16T14:33:11;3.30;;;0.93;;
68921;SDS011;55959;51.244;5.724;2023-05-16T14:35:36;2.58;;;1.00;;
68921;SDS011;55959;51.244;5.724;2023-05-16T14:38:03;3.33;;;1.38;;
68921;SDS011;55959;51.244;5.724;2023-05-16T14:40:31;1.80;;;0.80;;
68921;SDS011;55959;51.244;5.724;2023-05-16T14:42:58;3.85;;;1.15;;
68921;SDS011;55959;51.244;5.724;2023-05-16T14:45:24;4.47;;;1.67;;
68921;SDS011;55959;51.244;5.724;2023-05-16T14:47:49;3.42;;;1.33;;
68921;SDS011;55959;51.244;5.724;2023-05-16T14:50:17;2.08;;;0.70;;
68921;SDS011;55959;51.244;5.724;2023-05-16T14:52:43;2.67;;;0.88;;
68921;SDS011;55959;51.244;5.724;2023-05-16T14:55:08;2.15;;;1.10;;
68921;SDS011;55959;51.244;5.724;2023-05-16T14:57:35;2.10;;;1.20;;
68921;SDS011;55959;51.244;5.724;2023-05-16T15:00:01;3.13;;;1.00;;
68921;SDS011;55959;51.244;5.724;2023-05-16T15:02:26;1.92;;;1.08;;
68921;SDS011;55959;51.244;5.724;2023-05-16T15:04:52;4.05;;;1.42;;
68921;SDS011;55959;51.244;5.724;2023-05-16T15:07:18;5.85;;;1.30;;
68921;SDS011;55959;51.244;5.724;2023-05-16T15:09:44;5.05;;;1.45;;
68921;SDS011;55959;51.244;5.724;2023-05-16T15:12:10;3.53;;;1.17;;
68921;SDS011;55959;51.244;5.724;2023-05-16T15:14:36;1.80;;;1.05;;
68921;SDS011;55959;51.244;5.724;2023-05-16T15:17:02;2.60;;;0.93;;
68921;SDS011;55959;51.244;5.724;2023-05-16T15:19:28;2.58;;;1.42;;
68921;SDS011;55959;51.244;5.724;2023-05-16T15:21:54;3.03;;;1.23;;
68921;SDS011;55959;51.244;5.724;2023-05-16T15:24:19;4.22;;;1.10;;
68921;SDS011;55959;51.244;5.724;2023-05-16T15:26:45;4.00;;;1.45;;
68921;SDS011;55959;51.244;5.724;2023-05-16T15:29:11;3.38;;;1.25;;
68921;SDS011;55959;51.244;5.724;2023-05-16T15:31:37;4.07;;;1.00;;